createdAt,value
2022-08-26T00:01:54.437Z,100340.34
2022-08-26T00:04:23.805Z,100336.81
2022-08-26T00:06:52.381Z,100335.75
2022-08-26T00:09:19.515Z,100339.44
2022-08-26T00:11:46.707Z,100334.97
2022-08-26T00:14:16.394Z,100331.22
2022-08-26T00:16:47.627Z,100331.81
2022-08-26T00:19:28.541Z,100332.19
2022-08-26T00:21:55.793Z,100328.72
2022-08-26T00:24:23.534Z,100329.44
2022-08-26T00:26:50.901Z,100324.13
2022-08-26T00:29:19.050Z,100331.22
2022-08-26T00:31:48.359Z,100331.59
2022-08-26T00:34:16.766Z,100323.59
2022-08-26T00:36:47.021Z,100320.16
2022-08-26T00:39:14.238Z,100328.91
2022-08-26T00:41:41.851Z,100327.75
2022-08-26T00:44:11.200Z,100325.13
2022-08-26T00:46:47.584Z,100334.38
2022-08-26T00:49:40.765Z,100323.44
2022-08-26T00:52:14.662Z,100324.31
2022-08-26T00:54:53.496Z,100340.88
2022-08-26T00:57:22.371Z,100338.09
2022-08-26T00:59:56.856Z,100330.09
2022-08-26T01:02:24.794Z,100333.78
2022-08-26T01:04:57.840Z,100330.22
2022-08-26T01:07:31.261Z,100344.41
2022-08-26T01:10:01.899Z,100338.22
2022-08-26T01:12:38.859Z,100344.75
2022-08-26T01:15:11.255Z,100338.75
2022-08-26T01:17:41.164Z,100336.72
2022-08-26T01:20:24.828Z,100340.38
2022-08-26T01:23:04.399Z,100335.91
2022-08-26T01:25:34.967Z,100320.69
2022-08-26T01:28:10.211Z,100332.38
2022-08-26T01:30:40.500Z,100329.00
2022-08-26T01:33:15.909Z,100329.69
2022-08-26T01:35:44.216Z,100333.28
2022-08-26T01:38:12.924Z,100325.22
2022-08-26T01:40:43.075Z,100337.59
2022-08-26T01:43:17.550Z,100333.28
2022-08-26T01:45:46.873Z,100333.13
2022-08-26T01:48:20.964Z,100326.59
2022-08-26T01:50:48.464Z,100331.91
2022-08-26T01:53:18.590Z,100314.00
2022-08-26T01:55:53.299Z,100336.91
2022-08-26T01:58:48.372Z,100335.38
2022-08-26T02:01:16.939Z,100344.38
2022-08-26T02:03:58.651Z,100333.56
2022-08-26T02:06:25.906Z,100336.38
2022-08-26T02:08:56.262Z,100325.66
2022-08-26T02:11:23.680Z,100338.31
2022-08-26T02:13:57.188Z,100333.03
2022-08-26T02:16:32.221Z,100342.09
2022-08-26T02:19:01.725Z,100317.25
2022-08-26T02:21:31.078Z,100323.34
2022-08-26T02:24:13.332Z,100335.56
2022-08-26T02:26:40.879Z,100328.53
2022-08-26T02:29:25.484Z,100327.59
2022-08-26T02:31:55.758Z,100333.00
2022-08-26T02:34:31.096Z,100324.88
2022-08-26T02:37:01.292Z,100336.59
2022-08-26T02:39:29.829Z,100329.56
2022-08-26T02:41:58.116Z,100336.00
2022-08-26T02:44:26.558Z,100330.59
2022-08-26T02:46:54.695Z,100329.75
2022-08-26T02:49:23.771Z,100335.06
2022-08-26T02:51:51.879Z,100335.84
2022-08-26T02:54:21.590Z,100326.72
2022-08-26T02:56:49.373Z,100326.00
2022-08-26T02:59:16.402Z,100336.00
2022-08-26T03:01:45.268Z,100322.53
2022-08-26T03:04:13.206Z,100317.31
2022-08-26T03:06:42.335Z,100327.94
2022-08-26T03:09:09.892Z,100316.25
2022-08-26T03:11:41.201Z,100326.19
2022-08-26T03:14:08.554Z,100322.72
2022-08-26T03:16:37.838Z,100312.00
2022-08-26T03:19:07.956Z,100320.97
2022-08-26T03:21:37.070Z,100318.28
2022-08-26T03:24:05.496Z,100311.22
2022-08-26T03:26:32.621Z,100322.03
2022-08-26T03:29:18.452Z,100311.41
2022-08-26T03:31:47.066Z,100320.31
2022-08-26T03:34:14.865Z,100325.78
2022-08-26T03:36:42.276Z,100321.34
2022-08-26T03:39:12.046Z,100315.06
2022-08-26T03:41:40.636Z,100316.97
2022-08-26T03:44:09.059Z,100317.06
2022-08-26T03:46:37.384Z,100322.34
2022-08-26T03:49:06.901Z,100313.16
2022-08-26T03:51:38.746Z,100316.91
2022-08-26T03:54:08.225Z,100323.19
2022-08-26T03:56:36.779Z,100317.91
2022-08-26T03:59:05.118Z,100316.94
2022-08-26T04:01:34.967Z,100314.22
2022-08-26T04:04:02.308Z,100312.25
2022-08-26T04:06:36.000Z,100319.81
2022-08-26T04:09:09.393Z,100308.03
2022-08-26T04:11:39.613Z,100318.44
2022-08-26T04:14:17.684Z,100309.91
2022-08-26T04:16:48.328Z,100313.03
2022-08-26T04:19:16.826Z,100312.59
2022-08-26T04:21:45.130Z,100316.34
2022-08-26T04:24:15.660Z,100314.78
2022-08-26T04:26:43.881Z,100296.59
2022-08-26T04:29:20.307Z,100310.75
2022-08-26T04:31:55.567Z,100305.84
2022-08-26T04:34:29.005Z,100304.31
2022-08-26T04:36:58.057Z,100304.88
2022-08-26T04:39:25.450Z,100317.16
2022-08-26T04:41:55.661Z,100315.22
2022-08-26T04:44:29.155Z,100306.69
2022-08-26T04:46:57.452Z,100311.63
2022-08-26T04:49:26.107Z,100310.81
2022-08-26T04:51:55.022Z,100308.28
2022-08-26T04:54:22.831Z,100307.97
2022-08-26T04:56:52.239Z,100318.88
2022-08-26T04:59:19.325Z,100317.31
2022-08-26T05:01:51.753Z,100319.72
2022-08-26T05:04:21.191Z,100317.34
2022-08-26T05:06:48.735Z,100316.41
2022-08-26T05:09:16.166Z,100325.22
2022-08-26T05:11:43.192Z,100321.41
2022-08-26T05:14:10.315Z,100307.53
2022-08-26T05:16:38.982Z,100321.28
2022-08-26T05:19:08.698Z,100315.19
2022-08-26T05:21:36.574Z,100315.91
2022-08-26T05:24:04.754Z,100312.31
2022-08-26T05:26:32.543Z,100315.50
2022-08-26T05:28:59.736Z,100307.91
2022-08-26T05:31:31.861Z,100320.28
2022-08-26T05:34:00.693Z,100303.69
2022-08-26T05:36:34.959Z,100306.38
2022-08-26T05:39:07.927Z,100310.88
2022-08-26T05:41:41.477Z,100313.97
2022-08-26T05:44:14.028Z,100317.63
2022-08-26T05:46:42.499Z,100322.50
2022-08-26T05:49:13.904Z,100322.84
2022-08-26T05:51:47.560Z,100318.88
2022-08-26T05:54:22.399Z,100325.06
2022-08-26T05:56:51.356Z,100328.03
2022-08-26T05:59:21.266Z,100330.09
2022-08-26T06:01:53.225Z,100320.22
2022-08-26T06:04:20.377Z,100325.25
2022-08-26T06:06:47.589Z,100321.25
2022-08-26T06:09:14.805Z,100319.03
2022-08-26T06:11:45.524Z,100323.84
2022-08-26T06:14:12.864Z,100328.03
2022-08-26T06:16:45.547Z,100304.03
2022-08-26T06:19:15.582Z,100318.84
2022-08-26T06:21:47.219Z,100308.16
2022-08-26T06:24:37.553Z,100313.31
2022-08-26T06:27:09.658Z,100313.47
2022-08-26T06:29:39.187Z,100321.16
2022-08-26T06:32:06.923Z,100318.56
2022-08-26T06:34:35.929Z,100320.19
2022-08-26T06:37:03.535Z,100323.09
2022-08-26T06:39:31.786Z,100329.91
2022-08-26T06:42:00.822Z,100332.03
2022-08-26T06:44:30.393Z,100328.28
2022-08-26T06:46:57.534Z,100320.91
2022-08-26T06:49:25.855Z,100334.78
2022-08-26T06:51:59.615Z,100331.53
2022-08-26T06:54:28.765Z,100330.78
2022-08-26T06:56:57.205Z,100331.81
2022-08-26T06:59:24.878Z,100332.38
2022-08-26T07:01:52.443Z,100327.84
2022-08-26T07:04:22.462Z,100329.91
2022-08-26T07:06:53.394Z,100327.13
2022-08-26T07:09:23.644Z,100335.41
2022-08-26T07:11:51.873Z,100331.97
2022-08-26T07:14:21.751Z,100333.31
2022-08-26T07:16:50.644Z,100328.88
2022-08-26T07:19:31.240Z,100318.53
2022-08-26T07:22:04.438Z,100313.91
2022-08-26T07:24:36.969Z,100321.47
2022-08-26T07:27:08.858Z,100310.09
2022-08-26T07:29:39.641Z,100312.84
2022-08-26T07:32:08.351Z,100309.63
2022-08-26T07:34:37.781Z,100313.53
2022-08-26T07:37:06.117Z,100307.91
2022-08-26T07:39:36.234Z,100313.31
2022-08-26T07:42:08.061Z,100307.78
2022-08-26T07:44:37.684Z,100295.72
2022-08-26T07:47:10.072Z,100312.19
2022-08-26T07:49:52.687Z,100302.94
2022-08-26T07:52:25.343Z,100301.66
2022-08-26T07:54:53.643Z,100300.72
2022-08-26T07:57:20.864Z,100304.03
2022-08-26T07:59:48.020Z,100301.03
2022-08-26T08:02:15.098Z,100295.88
2022-08-26T08:04:43.354Z,100299.78
2022-08-26T08:07:11.539Z,100298.31
2022-08-26T08:09:40.763Z,100292.16
2022-08-26T08:12:08.291Z,100295.69
2022-08-26T08:14:45.296Z,100293.00
2022-08-26T08:17:14.536Z,100281.41
2022-08-26T08:19:42.878Z,100292.72
2022-08-26T08:22:17.116Z,100293.03
2022-08-26T08:24:45.285Z,100292.97
2022-08-26T08:27:18.141Z,100280.84
2022-08-26T08:29:50.180Z,100284.69
2022-08-26T08:32:18.428Z,100282.84
2022-08-26T08:34:45.581Z,100286.69
2022-08-26T08:37:12.591Z,100288.19
2022-08-26T08:39:39.656Z,100281.22
2022-08-26T08:42:28.675Z,100281.47
2022-08-26T08:44:59.865Z,100282.34
2022-08-26T08:47:39.394Z,100268.34
2022-08-26T08:50:30.564Z,100280.56
2022-08-26T08:53:37.705Z,100260.44
2022-08-26T08:56:10.904Z,100266.47
2022-08-26T08:58:46.590Z,100271.25
2022-08-26T09:01:30.239Z,100270.91
2022-08-26T09:04:33.710Z,100272.56
2022-08-26T09:07:03.015Z,100272.88
2022-08-26T09:09:46.188Z,100272.41
2022-08-26T09:12:29.383Z,100271.53
2022-08-26T09:15:30.436Z,100276.81
2022-08-26T09:18:21.514Z,100262.69
2022-08-26T09:21:07.906Z,100270.38
2022-08-26T09:23:38.700Z,100254.47
2022-08-26T09:26:30.915Z,100264.94
2022-08-26T09:29:08.995Z,100262.72
2022-08-26T09:31:39.180Z,100258.09
2022-08-26T09:34:26.462Z,100254.06
2022-08-26T09:37:00.191Z,100257.44
2022-08-26T09:39:38.166Z,100268.16
2022-08-26T09:42:25.621Z,100247.91
2022-08-26T09:45:06.910Z,100250.41
2022-08-26T09:47:39.310Z,100243.59
2022-08-26T09:50:50.018Z,100251.06
2022-08-26T09:53:25.218Z,100254.03
2022-08-26T09:56:25.502Z,100251.44
2022-08-26T09:58:56.702Z,100253.91
2022-08-26T10:01:23.698Z,100251.59
2022-08-26T10:03:51.966Z,100256.88
2022-08-26T10:06:20.962Z,100252.78
2022-08-26T10:09:09.688Z,100245.66
2022-08-26T10:11:57.275Z,100248.31
2022-08-26T10:14:37.220Z,100238.13
2022-08-26T10:17:32.938Z,100232.47
2022-08-26T10:20:27.444Z,100242.72
2022-08-26T10:23:14.097Z,100231.38
2022-08-26T10:26:08.504Z,100229.47
2022-08-26T10:28:56.718Z,100212.22
2022-08-26T10:31:55.172Z,100218.25
2022-08-26T10:34:29.705Z,100220.75
2022-08-26T10:37:13.874Z,100209.28
2022-08-26T10:39:57.200Z,100221.50
2022-08-26T10:42:42.806Z,100227.00
2022-08-26T10:45:16.598Z,100222.38
2022-08-26T10:48:16.537Z,100225.69
2022-08-26T10:50:47.984Z,100222.63
2022-08-26T10:53:18.269Z,100213.53
2022-08-26T10:56:15.698Z,100210.66
2022-08-26T10:59:18.226Z,100207.19
2022-08-26T11:02:11.235Z,100203.06
2022-08-26T11:04:56.166Z,100197.38
2022-08-26T11:07:43.127Z,100200.78
2022-08-26T11:10:22.924Z,100195.28
2022-08-26T11:13:19.062Z,100198.94
2022-08-26T11:15:45.900Z,100190.22
2022-08-26T11:18:42.694Z,100201.78
2022-08-26T11:22:06.131Z,100179.41
2022-08-26T11:24:44.729Z,100184.13
2022-08-26T11:27:24.316Z,100193.25
2022-08-26T11:30:01.710Z,100179.72
2022-08-26T11:32:34.733Z,100183.84
2022-08-26T11:35:12.069Z,100186.84
2022-08-26T11:38:25.172Z,100167.75
2022-08-26T11:41:08.851Z,100169.59
2022-08-26T11:43:39.570Z,100167.91
2022-08-26T11:46:11.181Z,100168.88
2022-08-26T11:48:42.704Z,100167.22
2022-08-26T11:51:13.851Z,100167.59
2022-08-26T11:53:47.103Z,100167.44
2022-08-26T11:56:34.640Z,100171.25
2022-08-26T11:59:12.836Z,100158.06
2022-08-26T12:01:44.606Z,100169.56
2022-08-26T12:04:31.420Z,100158.34
2022-08-26T12:07:00.983Z,100150.72
2022-08-26T12:09:34.608Z,100147.72
2022-08-26T12:12:18.046Z,100143.19
2022-08-26T12:14:45.406Z,100151.34
2022-08-26T12:17:18.577Z,100137.63
2022-08-26T12:19:46.467Z,100150.44
2022-08-26T12:22:26.538Z,100132.16
2022-08-26T12:24:58.601Z,100126.88
2022-08-26T12:27:32.687Z,100131.94
2022-08-26T12:30:09.034Z,100127.31
2022-08-26T12:32:57.609Z,100118.13
2022-08-26T12:35:28.918Z,100115.28
2022-08-26T12:37:57.628Z,100103.84
2022-08-26T12:40:41.870Z,100114.59
2022-08-26T12:43:11.667Z,100108.41
2022-08-26T12:45:58.112Z,100101.09
2022-08-26T12:48:35.983Z,100098.75
2022-08-26T12:51:04.019Z,100099.84
2022-08-26T12:53:34.906Z,100100.59
2022-08-26T12:56:20.239Z,100094.47
2022-08-26T12:59:23.780Z,100095.66
2022-08-26T13:01:52.342Z,100091.69
2022-08-26T13:04:32.271Z,100092.44
2022-08-26T13:07:24.934Z,100080.31
2022-08-26T13:09:58.114Z,100089.34
2022-08-26T13:12:33.654Z,100074.63
2022-08-26T13:15:02.199Z,100087.16
2022-08-26T13:17:30.958Z,100081.09
2022-08-26T13:20:03.475Z,100089.78
2022-08-26T13:22:31.491Z,100082.13
2022-08-26T13:24:58.725Z,100080.97
2022-08-26T13:27:27.404Z,100078.47
2022-08-26T13:29:57.198Z,100076.94
2022-08-26T13:32:27.659Z,100056.25
2022-08-26T13:34:56.671Z,100067.13
2022-08-26T13:37:34.995Z,100061.63
2022-08-26T13:40:05.642Z,100068.84
2022-08-26T13:42:32.980Z,100067.84
2022-08-26T13:45:01.976Z,100066.22
2022-08-26T13:47:29.059Z,100056.38
2022-08-26T13:49:56.491Z,100058.13
2022-08-26T13:52:27.302Z,100047.38
2022-08-26T13:55:00.883Z,100043.59
2022-08-26T13:57:30.238Z,100043.75
2022-08-26T13:59:59.544Z,100049.13
2022-08-26T14:02:28.358Z,100047.88
2022-08-26T14:04:56.052Z,100044.13
2022-08-26T14:07:23.556Z,100047.06
2022-08-26T14:09:50.852Z,100045.03
2022-08-26T14:12:17.961Z,100045.97
2022-08-26T14:14:45.156Z,100048.38
2022-08-26T14:17:18.266Z,100044.50
2022-08-26T14:19:47.649Z,100039.38
2022-08-26T14:22:17.483Z,100037.78
2022-08-26T14:24:45.673Z,100042.75
2022-08-26T14:27:13.723Z,100036.03
2022-08-26T14:29:41.539Z,100035.06
2022-08-26T14:32:16.961Z,100034.03
2022-08-26T14:34:48.076Z,100037.56
2022-08-26T14:37:15.515Z,100028.13
2022-08-26T14:39:42.672Z,100017.22
2022-08-26T14:42:10.532Z,100028.25
2022-08-26T14:44:37.706Z,100020.75
2022-08-26T14:47:06.753Z,100015.00
2022-08-26T14:49:33.777Z,100009.56
2022-08-26T14:52:00.990Z,100020.06
2022-08-26T14:54:29.522Z,100015.09
2022-08-26T14:57:03.855Z,100016.94
2022-08-26T14:59:39.014Z,100004.38
2022-08-26T15:02:08.884Z,100020.06
2022-08-26T15:04:41.542Z,100014.44
2022-08-26T15:07:12.737Z,100013.53
2022-08-26T15:09:40.072Z,100015.56
2022-08-26T15:12:07.318Z,100018.97
2022-08-26T15:14:34.434Z,100030.22
2022-08-26T15:17:02.469Z,100017.47
2022-08-26T15:19:29.624Z,100013.38
2022-08-26T15:21:56.775Z,99993.56
2022-08-26T15:24:26.316Z,100001.50
2022-08-26T15:26:53.761Z,99998.00
2022-08-26T15:29:22.824Z,100004.47
2022-08-26T15:31:50.457Z,100003.28
2022-08-26T15:34:17.813Z,99996.88
2022-08-26T15:36:47.090Z,99998.72
2022-08-26T15:39:17.191Z,99991.69
2022-08-26T15:41:44.795Z,99992.06
2022-08-26T15:44:14.114Z,99991.00
2022-08-26T15:46:42.577Z,100003.69
2022-08-26T15:49:12.037Z,99993.34
2022-08-26T15:51:46.165Z,99994.56
2022-08-26T15:54:16.718Z,99986.66
2022-08-26T15:56:45.545Z,99997.78
2022-08-26T15:59:15.379Z,99991.31
2022-08-26T16:01:43.810Z,99987.63
2022-08-26T16:04:11.549Z,99977.00
2022-08-26T16:06:41.217Z,99993.00
2022-08-26T16:09:10.125Z,99978.97
2022-08-26T16:11:38.015Z,99981.13
2022-08-26T16:14:06.355Z,99984.72
2022-08-26T16:16:33.640Z,99983.16
2022-08-26T16:19:05.502Z,99974.28
2022-08-26T16:21:34.282Z,99978.50
2022-08-26T16:24:01.325Z,99978.03
2022-08-26T16:26:32.815Z,99989.41
2022-08-26T16:29:03.024Z,99984.22
2022-08-26T16:31:30.410Z,99978.50
2022-08-26T16:33:58.201Z,99976.72
2022-08-26T16:36:25.382Z,99974.53
2022-08-26T16:38:56.255Z,99967.06
2022-08-26T16:41:27.170Z,99986.56
2022-08-26T16:43:55.130Z,99984.91
2022-08-26T16:46:26.291Z,99972.91
2022-08-26T16:48:58.609Z,99976.81
2022-08-26T16:51:27.900Z,99971.94
2022-08-26T16:53:57.245Z,99987.78
2022-08-26T16:56:33.507Z,99979.47
2022-08-26T16:59:04.196Z,99980.81
2022-08-26T17:01:31.400Z,99983.53
2022-08-26T17:03:58.549Z,99983.94
2022-08-26T17:06:25.564Z,99981.31
2022-08-26T17:08:53.161Z,99985.09
2022-08-26T17:11:20.273Z,99980.91
2022-08-26T17:13:47.361Z,99978.91
2022-08-26T17:16:16.274Z,99986.19
2022-08-26T17:18:43.520Z,99984.94
2022-08-26T17:21:13.730Z,99991.63
2022-08-26T17:23:43.636Z,99979.53
2022-08-26T17:26:12.570Z,99988.75
2022-08-26T17:28:40.411Z,99994.34
2022-08-26T17:31:08.396Z,99982.59
2022-08-26T17:33:35.607Z,99988.84
2022-08-26T17:36:09.674Z,99994.75
2022-08-26T17:38:38.070Z,99993.69
2022-08-26T17:41:12.755Z,99981.88
2022-08-26T17:43:40.689Z,99980.25
2022-08-26T17:46:10.790Z,99994.03
2022-08-26T17:48:39.829Z,100000.34
2022-08-26T17:51:17.220Z,99998.22
2022-08-26T17:53:44.958Z,100006.75
2022-08-26T17:56:15.699Z,100009.72
2022-08-26T17:58:47.926Z,100008.97
2022-08-26T18:01:23.731Z,100008.59
2022-08-26T18:03:50.846Z,100010.38
2022-08-26T18:06:19.726Z,99996.63
2022-08-26T18:08:47.011Z,99999.72
2022-08-26T18:11:19.251Z,99996.22
2022-08-26T18:13:47.890Z,99993.50
2022-08-26T18:16:18.084Z,100000.06
2022-08-26T18:18:46.890Z,100004.69
2022-08-26T18:21:20.702Z,100002.34
2022-08-26T18:23:48.693Z,100007.22
2022-08-26T18:26:19.574Z,100010.84
2022-08-26T18:28:46.776Z,100012.63
2022-08-26T18:31:15.327Z,100006.06
2022-08-26T18:33:43.723Z,99991.28
2022-08-26T18:36:29.861Z,100007.56
2022-08-26T18:38:58.085Z,99998.13
2022-08-26T18:41:28.794Z,100008.78
2022-08-26T18:43:56.374Z,100008.59
2022-08-26T18:46:26.709Z,100014.06
2022-08-26T18:48:55.253Z,100013.94
2022-08-26T18:51:26.856Z,100015.41
2022-08-26T18:53:54.028Z,100020.41
2022-08-26T18:56:21.098Z,100015.81
2022-08-26T18:58:48.621Z,100014.44
2022-08-26T19:01:17.691Z,100011.75
2022-08-26T19:03:45.917Z,100016.03
2022-08-26T19:06:20.388Z,100007.63
2022-08-26T19:08:49.983Z,100020.41
2022-08-26T19:11:32.285Z,100023.97
2022-08-26T19:14:10.100Z,100017.28
2022-08-26T19:16:37.663Z,100015.38
2022-08-26T19:19:05.131Z,100015.41
2022-08-26T19:21:34.742Z,100004.44
2022-08-26T19:24:04.916Z,100007.09
2022-08-26T19:26:32.284Z,100014.47
2022-08-26T19:29:00.289Z,100013.38
2022-08-26T19:31:28.385Z,100017.78
2022-08-26T19:33:56.681Z,100015.41
2022-08-26T19:36:26.101Z,100014.31
2022-08-26T19:38:54.570Z,100023.34
2022-08-26T19:41:37.287Z,100019.81
2022-08-26T19:44:35.359Z,100017.09
2022-08-26T19:47:03.800Z,100019.09
2022-08-26T19:49:31.473Z,100026.56
2022-08-26T19:51:58.785Z,100023.00
2022-08-26T19:54:26.031Z,100024.41
2022-08-26T19:56:53.163Z,100026.66
2022-08-26T19:59:20.737Z,100023.19
2022-08-26T20:01:52.932Z,100023.63
2022-08-26T20:04:28.015Z,100026.59
2022-08-26T20:06:57.584Z,100026.94
2022-08-26T20:09:25.756Z,100022.44
2022-08-26T20:11:54.023Z,100033.94
2022-08-26T20:14:25.473Z,100023.47
2022-08-26T20:16:52.638Z,100014.09
2022-08-26T20:19:38.480Z,100012.22
2022-08-26T20:22:06.516Z,100013.34
2022-08-26T20:24:35.693Z,100030.91
2022-08-26T20:27:07.784Z,100021.22
2022-08-26T20:29:36.983Z,100030.09
2022-08-26T20:32:06.893Z,100029.66
2022-08-26T20:34:35.245Z,100029.66
2022-08-26T20:37:04.314Z,100028.78
2022-08-26T20:39:31.423Z,100031.72
2022-08-26T20:41:58.636Z,100023.47
2022-08-26T20:44:27.166Z,100035.44
2022-08-26T20:46:55.294Z,100040.28
2022-08-26T20:49:22.399Z,100020.22
2022-08-26T20:51:52.608Z,100032.47
2022-08-26T20:54:26.276Z,100037.53
2022-08-26T20:56:57.853Z,100038.03
2022-08-26T20:59:26.305Z,100052.59
2022-08-26T21:01:53.400Z,100047.25
2022-08-26T21:04:24.316Z,100047.19
2022-08-26T21:06:52.741Z,100042.16
2022-08-26T21:09:23.010Z,100057.41
2022-08-26T21:11:51.330Z,100040.72
2022-08-26T21:14:20.618Z,100057.75
2022-08-26T21:16:48.027Z,100063.22
2022-08-26T21:19:18.230Z,100055.28
2022-08-26T21:21:47.998Z,100057.13
2022-08-26T21:24:15.531Z,100051.09
2022-08-26T21:26:43.394Z,100055.63
2022-08-26T21:29:10.485Z,100055.28
2022-08-26T21:31:43.550Z,100044.59
2022-08-26T21:34:14.014Z,100054.00
2022-08-26T21:36:41.056Z,100056.47
2022-08-26T21:39:11.673Z,100043.56
2022-08-26T21:41:40.704Z,100054.56
2022-08-26T21:44:08.902Z,100048.88
2022-08-26T21:46:37.401Z,100052.38
2022-08-26T21:49:09.704Z,100045.28
2022-08-26T21:51:41.246Z,100042.44
2022-08-26T21:54:11.304Z,100049.28
2022-08-26T21:56:44.360Z,100039.34
2022-08-26T21:59:12.410Z,100050.91
2022-08-26T22:01:39.529Z,100045.53
2022-08-26T22:04:09.541Z,100041.97
2022-08-26T22:06:45.614Z,100042.69
2022-08-26T22:09:15.732Z,100033.69
2022-08-26T22:11:43.222Z,100050.22
2022-08-26T22:14:11.097Z,100039.25
2022-08-26T22:16:38.388Z,100038.78
2022-08-26T22:19:05.926Z,100046.03
2022-08-26T22:21:35.420Z,100039.91
2022-08-26T22:24:04.770Z,100037.22
2022-08-26T22:26:34.610Z,100046.81
2022-08-26T22:29:02.544Z,100043.72
2022-08-26T22:31:37.268Z,100047.09
2022-08-26T22:34:12.098Z,100049.84
2022-08-26T22:36:44.694Z,100038.97
2022-08-26T22:39:18.911Z,100052.78
2022-08-26T22:41:48.807Z,100044.59
2022-08-26T22:44:18.060Z,100040.41
2022-08-26T22:46:46.774Z,100045.91
2022-08-26T22:49:16.534Z,100043.44
2022-08-26T22:51:45.058Z,100040.81
2022-08-26T22:54:13.004Z,100035.59
2022-08-26T22:56:40.771Z,100039.84
2022-08-26T22:59:09.504Z,100037.94
2022-08-26T23:01:40.104Z,100030.09
2022-08-26T23:04:08.551Z,100031.91
2022-08-26T23:06:38.390Z,100028.94
2022-08-26T23:09:07.378Z,100033.75
2022-08-26T23:11:34.866Z,100031.13
2022-08-26T23:14:05.063Z,100035.75
2022-08-26T23:16:41.715Z,100024.69
2022-08-26T23:19:12.434Z,100019.94
2022-08-26T23:21:39.975Z,100024.47
2022-08-26T23:24:08.693Z,100014.56
2022-08-26T23:26:37.367Z,100021.88
2022-08-26T23:29:08.174Z,100025.66
2022-08-26T23:31:38.878Z,100027.50
2022-08-26T23:34:25.066Z,100017.69
2022-08-26T23:36:52.841Z,100017.69
2022-08-26T23:39:21.244Z,100015.28
2022-08-26T23:41:48.527Z,100016.41
2022-08-26T23:44:15.564Z,100004.84
2022-08-26T23:46:42.679Z,100001.91
2022-08-26T23:49:09.805Z,100007.31
2022-08-26T23:51:57.374Z,100013.50
2022-08-26T23:54:25.477Z,100005.94
2022-08-26T23:56:52.528Z,100006.97
2022-08-26T23:59:19.638Z,100003.19
